KAVP/AVP METAR and TAF weather

Enter ICAO airport designator
Station Type Date Time Source
KAVP METAR 2021/01/27 12:26 UTC NOAA

KAVP 271226Z 34013KT 10SM BKN025 BKN034 OVC041 00/M06 A2998 RMK AO2 T00001056


Station Type Date Time Source
KAVP Decoded METAR 2021/01/27 12:26 UTC NOAA

WILKES-BARRE/SCRANTON INTERNATIONAL , PA, United States (KAVP) 41-20N 75-44W 291M
Jan 27, 2021 - 07:26 AM EST / 2021.01.27 1226 UTC
Wind: from the NNW (340 degrees) at 15 MPH (13 KT):0
Visibility: 10 mile(s):0
Sky conditions: overcast
Temperature: 32.0 F (0.0 C)
Windchill: 21 F (-6 C):1
Dew Point: 21.9 F (-5.6 C)
Relative Humidity: 65%
Pressure (altimeter): 29.98 in. Hg (1015 hPa)
ob: KAVP 271226Z 34013KT 10SM BKN025 BKN034 OVC041 00/M06 A2998 RMK AO2 T00001056
cycle: 12

Station Type Date Time Source
KAVP TAF 2021/01/27 12:27 UTC NOAA

TAF KAVP 271125Z 2712/2812 33009G16KT P6SM OVC020
FM272000 33008KT P6SM OVC020
FM280400 34007KT P6SM OVC016

Example: see airport list